Kakamas, South Africa
Current Conditions -  °F | °C
As of 3:00 PM on Friday 31 Oct 2014 (Local Time) from FAUP Reporting Station
Scattered Clouds Scattered Clouds  
Wind Chill: 93°   Ceiling: Unl
Heat Index: 93°   Visibility: 6mi
Dew Point: 28°   Wind: 10mph
Humidity: 10%   Direction: 290°WNW
Pressure: 29.85"   Gusts: NA
Location:  28.77°S, 20.61°E
Report Text: FAUP 311300Z 29009KT 9999 FEW050 SCT100 34/M02 Q1011 NOSIG
Loading
Personal Weather Stations






























Interactive Weather Map
Tropical Storm Tracking
New forecast layout! Learn more

10-Day Weather Forecast

Advertisements
Track Severe Weather on mobile